Time;durP1;ratioP1;P1;durP2;ratioP2;P2;SDS_P1;SDS_P2;PMS_P1;PMS_P2;Temp;Humidity;BMP_temperature;BMP_pressure;BME280_temperature;BME280_humidity;BME280_pressure;Samples;Min_cycle;Max_cycle;Signal;HPM_P1;HPM_P2
2023/08/18 00:00:19;;;;;;;30.80;28.00;;;;;;;;;;5095865;28;20847;-84
2023/08/18 00:02:48;;;;;;;29.03;26.53;;;;;;;;;;5095721;28;20465;-83
2023/08/18 00:05:15;;;;;;;30.37;27.70;;;;;;;;;;5095987;28;20476;-82
2023/08/18 00:07:42;;;;;;;29.67;27.33;;;;;;;;;;5096066;28;20842;-82
2023/08/18 00:10:09;;;;;;;29.17;26.33;;;;;;;;;;5095848;28;20449;-84
2023/08/18 00:12:36;;;;;;;30.83;28.30;;;;;;;;;;5096191;28;20447;-82
2023/08/18 00:15:04;;;;;;;30.93;28.17;;;;;;;;;;5096553;28;20459;-82
2023/08/18 00:17:31;;;;;;;30.60;28.17;;;;;;;;;;5096692;28;20525;-84
2023/08/18 00:19:59;;;;;;;32.70;29.70;;;;;;;;;;5096231;28;20460;-82
2023/08/18 00:22:28;;;;;;;31.10;28.33;;;;;;;;;;5096491;28;20476;-82
2023/08/18 00:24:55;;;;;;;30.13;27.60;;;;;;;;;;5096179;28;20564;-82
2023/08/18 00:27:23;;;;;;;29.87;27.20;;;;;;;;;;5096319;28;20547;-82
2023/08/18 00:29:50;;;;;;;29.40;26.80;;;;;;;;;;5095567;28;20445;-82
2023/08/18 00:32:17;;;;;;;30.07;27.50;;;;;;;;;;5095595;28;20973;-83
2023/08/18 00:34:44;;;;;;;30.27;27.67;;;;;;;;;;5096797;28;20442;-81
2023/08/18 00:37:13;;;;;;;30.97;27.67;;;;;;;;;;5096026;28;20456;-82
2023/08/18 00:39:40;;;;;;;29.97;27.47;;;;;;;;;;5096371;28;20441;-82
2023/08/18 00:42:07;;;;;;;30.50;27.90;;;;;;;;;;5095286;28;20434;-82
2023/08/18 00:44:34;;;;;;;29.50;27.00;;;;;;;;;;5100108;28;20502;-82
2023/08/18 00:47:02;;;;;;;29.73;27.23;;;;;;;;;;5100064;28;20441;-82
2023/08/18 00:49:29;;;;;;;29.43;26.70;;;;;;;;;;5099748;28;20495;-82
2023/08/18 00:51:57;;;;;;;28.77;26.43;;;;;;;;;;5099359;28;20477;-82
2023/08/18 00:54:26;;;;;;;30.03;27.33;;;;;;;;;;5099732;28;20457;-82
2023/08/18 00:56:53;;;;;;;28.90;26.43;;;;;;;;;;5099653;28;20441;-82
2023/08/18 00:59:20;;;;;;;29.43;26.90;;;;;;;;;;5099809;28;20452;-82
2023/08/18 01:01:47;;;;;;;27.13;25.07;;;;;;;;;;5098721;28;20405;-84
2023/08/18 01:04:15;;;;;;;29.90;27.00;;;;;;;;;;5099910;28;20441;-82
2023/08/18 01:06:42;;;;;;;28.50;26.50;;;;;;;;;;5099174;28;20495;-82
2023/08/18 01:09:09;;;;;;;29.87;27.13;;;;;;;;;;5099268;28;20821;-82
2023/08/18 01:11:41;;;;;;;30.87;27.53;;;;;;;;;;5099002;28;20529;-82
2023/08/18 01:14:16;;;;;;;28.00;25.70;;;;;;;;;;5099314;28;20872;-83
2023/08/18 01:16:49;;;;;;;30.37;27.57;;;;;;;;;;5100017;28;20516;-81
2023/08/18 01:19:16;;;;;;;27.77;25.57;;;;;;;;;;5099910;28;20421;-82
2023/08/18 01:21:43;;;;;;;28.40;26.10;;;;;;;;;;5098525;28;20883;-82
2023/08/18 01:24:12;;;;;;;28.50;25.93;;;;;;;;;;5099105;28;20490;-82
2023/08/18 01:26:39;;;;;;;27.83;25.47;;;;;;;;;;5099278;28;20492;-83
2023/08/18 01:29:06;;;;;;;27.67;25.37;;;;;;;;;;5099366;28;20437;-82
2023/08/18 01:31:34;;;;;;;27.70;25.40;;;;;;;;;;5098671;28;20457;-83
2023/08/18 01:34:06;;;;;;;30.00;27.47;;;;;;;;;;5099848;28;20452;-82
2023/08/18 01:36:35;;;;;;;28.03;25.53;;;;;;;;;;5098802;28;20452;-83
2023/08/18 01:39:03;;;;;;;29.30;26.70;;;;;;;;;;5099077;28;20456;-84
2023/08/18 01:41:32;;;;;;;27.30;25.10;;;;;;;;;;5098793;28;20440;-83
2023/08/18 01:44:00;;;;;;;27.50;25.20;;;;;;;;;;5099122;28;20494;-81
2023/08/18 01:46:27;;;;;;;28.37;25.97;;;;;;;;;;5098888;28;20990;-82
2023/08/18 01:48:54;;;;;;;28.50;26.10;;;;;;;;;;5099546;28;20438;-84
2023/08/18 01:51:22;;;;;;;29.80;27.30;;;;;;;;;;5098306;28;20449;-83
2023/08/18 01:53:49;;;;;;;28.63;26.10;;;;;;;;;;5097973;28;20472;-85
2023/08/18 01:56:16;;;;;;;27.97;25.80;;;;;;;;;;5099056;28;20445;-82
2023/08/18 01:58:44;;;;;;;27.63;25.30;;;;;;;;;;5080841;28;21230;-84
2023/08/18 02:01:12;;;;;;;27.53;25.57;;;;;;;;;;5085188;28;20468;-82
2023/08/18 02:03:39;;;;;;;27.13;24.97;;;;;;;;;;5098680;28;20555;-83
2023/08/18 02:06:06;;;;;;;27.10;24.97;;;;;;;;;;5098528;28;20488;-82
2023/08/18 02:08:33;;;;;;;27.47;25.30;;;;;;;;;;5098980;28;20420;-82
2023/08/18 02:11:03;;;;;;;26.40;24.47;;;;;;;;;;5097656;28;21025;-82
2023/08/18 02:13:31;;;;;;;26.60;24.37;;;;;;;;;;5098379;28;20790;-82
2023/08/18 02:15:59;;;;;;;28.40;25.77;;;;;;;;;;5098354;28;20452;-83
2023/08/18 02:18:26;;;;;;;26.20;24.13;;;;;;;;;;5098196;28;20448;-82
2023/08/18 02:20:56;;;;;;;26.93;24.90;;;;;;;;;;5097643;28;20459;-82
2023/08/18 02:23:23;;;;;;;27.10;25.03;;;;;;;;;;5098215;28;20465;-82
2023/08/18 02:25:50;;;;;;;26.73;24.40;;;;;;;;;;5098146;28;20514;-82
2023/08/18 02:28:18;;;;;;;25.90;23.60;;;;;;;;;;5097872;28;20447;-82
2023/08/18 02:30:45;;;;;;;26.23;24.13;;;;;;;;;;5098147;28;20479;-82
2023/08/18 02:33:14;;;;;;;27.43;25.37;;;;;;;;;;5097798;28;20465;-82
2023/08/18 02:35:43;;;;;;;25.93;24.07;;;;;;;;;;5098502;28;20452;-84
2023/08/18 02:38:14;;;;;;;26.23;24.03;;;;;;;;;;5097620;28;20443;-82
2023/08/18 02:40:41;;;;;;;26.57;24.50;;;;;;;;;;5097228;28;20526;-83
2023/08/18 02:43:09;;;;;;;27.60;25.50;;;;;;;;;;5097603;28;20477;-82
2023/08/18 02:45:36;;;;;;;27.00;25.20;;;;;;;;;;5098240;28;20516;-82
2023/08/18 02:48:03;;;;;;;27.03;25.03;;;;;;;;;;5097922;28;20453;-84
2023/08/18 02:50:31;;;;;;;27.87;25.67;;;;;;;;;;5097155;28;20452;-84
2023/08/18 02:53:00;;;;;;;26.70;24.80;;;;;;;;;;5097367;28;20472;-82
2023/08/18 02:55:28;;;;;;;26.90;24.90;;;;;;;;;;5097325;28;20974;-82
2023/08/18 02:57:55;;;;;;;27.53;25.33;;;;;;;;;;5097806;28;20472;-82
2023/08/18 03:00:22;;;;;;;26.50;24.50;;;;;;;;;;5097002;28;20551;-82
2023/08/18 03:02:50;;;;;;;27.07;25.07;;;;;;;;;;5097151;28;20529;-82
2023/08/18 03:05:17;;;;;;;26.60;24.60;;;;;;;;;;5096480;28;20530;-82
2023/08/18 03:07:45;;;;;;;27.07;25.00;;;;;;;;;;5097744;28;20538;-81
2023/08/18 03:10:13;;;;;;;28.87;26.60;;;;;;;;;;5096473;28;20464;-83
2023/08/18 03:12:40;;;;;;;28.90;26.50;;;;;;;;;;5097046;28;20443;-82
2023/08/18 03:15:08;;;;;;;27.77;25.57;;;;;;;;;;5097449;28;20427;-82
2023/08/18 03:17:35;;;;;;;29.10;26.87;;;;;;;;;;5097074;28;20669;-82
2023/08/18 03:20:04;;;;;;;28.93;26.53;;;;;;;;;;5096775;28;20972;-82
2023/08/18 03:22:32;;;;;;;29.63;27.00;;;;;;;;;;5096867;28;21054;-83
2023/08/18 03:25:00;;;;;;;29.20;26.60;;;;;;;;;;5097257;28;20449;-82
2023/08/18 03:27:28;;;;;;;30.57;27.90;;;;;;;;;;5097135;28;20520;-82
2023/08/18 03:29:55;;;;;;;30.83;28.10;;;;;;;;;;5096974;28;20448;-82
2023/08/18 03:32:23;;;;;;;31.57;28.67;;;;;;;;;;5096967;28;20874;-83
2023/08/18 03:34:50;;;;;;;31.40;28.50;;;;;;;;;;5096829;28;20468;-81
2023/08/18 03:37:17;;;;;;;30.80;28.27;;;;;;;;;;5096989;28;20440;-82
2023/08/18 03:39:44;;;;;;;31.00;28.10;;;;;;;;;;5096836;28;20781;-84
2023/08/18 03:42:12;;;;;;;31.27;27.90;;;;;;;;;;5097412;28;20476;-82
2023/08/18 03:44:40;;;;;;;33.00;30.03;;;;;;;;;;5096692;28;20437;-82
2023/08/18 03:47:07;;;;;;;37.90;30.93;;;;;;;;;;5096207;28;20575;-83
2023/08/18 03:49:34;;;;;;;42.80;30.90;;;;;;;;;;5096534;28;21005;-84
2023/08/18 03:52:01;;;;;;;33.83;30.23;;;;;;;;;;5096210;28;20469;-83
2023/08/18 03:54:28;;;;;;;32.97;29.83;;;;;;;;;;5096708;28;20920;-82
2023/08/18 03:56:55;;;;;;;31.83;28.80;;;;;;;;;;5096188;28;20450;-81
2023/08/18 03:59:24;;;;;;;31.30;28.17;;;;;;;;;;5096156;28;20437;-84
2023/08/18 04:01:51;;;;;;;33.17;28.87;;;;;;;;;;5096770;28;20409;-83
2023/08/18 04:04:18;;;;;;;31.73;28.50;;;;;;;;;;5096163;28;20449;-82
2023/08/18 04:06:45;;;;;;;29.47;27.03;;;;;;;;;;5096439;28;20484;-82
2023/08/18 04:09:15;;;;;;;30.00;26.87;;;;;;;;;;5078827;28;20457;-82
2023/08/18 04:11:43;;;;;;;30.10;27.10;;;;;;;;;;5076007;28;20441;-83
2023/08/18 04:14:13;;;;;;;29.97;27.20;;;;;;;;;;5076371;28;20780;-83
2023/08/18 04:16:42;;;;;;;29.13;26.70;;;;;;;;;;5077218;28;20468;-84
2023/08/18 04:19:09;;;;;;;30.17;27.30;;;;;;;;;;5080244;28;20456;-82
2023/08/18 04:21:36;;;;;;;29.40;26.57;;;;;;;;;;5079623;28;20449;-84
2023/08/18 04:24:03;;;;;;;29.70;26.90;;;;;;;;;;5080491;28;20797;-82
2023/08/18 04:26:30;;;;;;;29.83;27.10;;;;;;;;;;5080345;28;21014;-82
2023/08/18 04:28:57;;;;;;;30.93;28.27;;;;;;;;;;5080344;28;20820;-84
2023/08/18 04:31:25;;;;;;;29.87;27.20;;;;;;;;;;5079749;28;20445;-84
2023/08/18 04:33:53;;;;;;;31.33;28.43;;;;;;;;;;5080093;28;20448;-82
2023/08/18 04:36:19;;;;;;;32.10;29.07;;;;;;;;;;5080351;28;20743;-85
2023/08/18 04:38:46;;;;;;;31.23;28.20;;;;;;;;;;5079500;28;20424;-88
2023/08/18 04:41:13;;;;;;;30.63;27.60;;;;;;;;;;5078364;28;20469;-88
2023/08/18 04:43:40;;;;;;;30.37;27.67;;;;;;;;;;5079286;28;20477;-87
2023/08/18 04:46:07;;;;;;;30.83;28.00;;;;;;;;;;5078762;28;20832;-87
2023/08/18 04:48:34;;;;;;;28.93;26.40;;;;;;;;;;5079275;28;20916;-88
2023/08/18 04:51:03;;;;;;;28.97;26.50;;;;;;;;;;5090199;28;20462;-87
2023/08/18 04:53:30;;;;;;;30.33;27.63;;;;;;;;;;5078971;28;20969;-87
2023/08/18 04:55:57;;;;;;;31.13;28.43;;;;;;;;;;5078783;28;20464;-88
2023/08/18 04:58:24;;;;;;;31.17;28.47;;;;;;;;;;5078727;28;20450;-87
2023/08/18 05:00:53;;;;;;;30.53;28.03;;;;;;;;;;5085096;28;20461;-88
2023/08/18 05:03:20;;;;;;;29.70;27.20;;;;;;;;;;5079902;28;20568;-87
2023/08/18 05:05:59;;;;;;;29.80;27.23;;;;;;;;;;5079124;28;20828;-88
2023/08/18 05:08:27;;;;;;;29.23;26.83;;;;;;;;;;5078923;28;20422;-88
2023/08/18 05:10:54;;;;;;;30.30;27.80;;;;;;;;;;5078273;28;20815;-88
2023/08/18 05:13:21;;;;;;;29.83;27.50;;;;;;;;;;5078355;28;20466;-87
2023/08/18 05:15:48;;;;;;;28.57;26.37;;;;;;;;;;5078850;28;20446;-88
2023/08/18 05:18:16;;;;;;;28.33;25.90;;;;;;;;;;5079801;28;20470;-88
2023/08/18 05:20:43;;;;;;;31.67;28.70;;;;;;;;;;5077962;28;20466;-88
2023/08/18 05:23:10;;;;;;;31.70;29.10;;;;;;;;;;5078315;28;20495;-87
2023/08/18 05:25:38;;;;;;;29.37;26.60;;;;;;;;;;5078560;28;20447;-87
2023/08/18 05:28:06;;;;;;;30.93;27.83;;;;;;;;;;5076924;28;20508;-88
2023/08/18 05:30:33;;;;;;;29.50;26.80;;;;;;;;;;5079219;28;20462;-88
2023/08/18 05:33:00;;;;;;;29.00;26.20;;;;;;;;;;5078479;28;20462;-88
2023/08/18 05:35:27;;;;;;;31.23;28.27;;;;;;;;;;5078561;28;20454;-88
2023/08/18 05:37:54;;;;;;;30.13;27.07;;;;;;;;;;5078347;28;20457;-88
2023/08/18 05:40:22;;;;;;;31.20;28.40;;;;;;;;;;5077734;28;20434;-87
2023/08/18 05:42:50;;;;;;;30.83;28.10;;;;;;;;;;5078114;28;20488;-88
2023/08/18 05:45:17;;;;;;;29.00;26.40;;;;;;;;;;5077553;28;20445;-87
2023/08/18 05:47:44;;;;;;;29.03;26.70;;;;;;;;;;5077967;28;20483;-88
2023/08/18 05:50:12;;;;;;;29.10;26.30;;;;;;;;;;5077700;28;20430;-88
2023/08/18 05:52:39;;;;;;;28.93;26.43;;;;;;;;;;5091867;28;20835;-87
2023/08/18 05:55:06;;;;;;;29.30;27.00;;;;;;;;;;5098276;28;20998;-87
2023/08/18 05:57:36;;;;;;;29.20;27.03;;;;;;;;;;5097879;28;20445;-88
2023/08/18 06:00:06;;;;;;;29.83;27.30;;;;;;;;;;5097680;28;20488;-88
2023/08/18 06:02:33;;;;;;;29.60;26.90;;;;;;;;;;5089531;28;20470;-87
2023/08/18 06:05:00;;;;;;;27.67;25.53;;;;;;;;;;5077939;28;20949;-87
2023/08/18 06:07:27;;;;;;;28.33;26.03;;;;;;;;;;5078195;28;20489;-88
2023/08/18 06:09:54;;;;;;;26.87;24.87;;;;;;;;;;5077162;28;20412;-87
2023/08/18 06:12:21;;;;;;;26.10;23.90;;;;;;;;;;5080847;28;21274;-86
2023/08/18 06:14:49;;;;;;;28.23;26.00;;;;;;;;;;5083774;28;20446;-85
2023/08/18 06:17:17;;;;;;;28.70;26.40;;;;;;;;;;5083273;28;20469;-87
2023/08/18 06:19:44;;;;;;;26.30;24.33;;;;;;;;;;5083636;28;20891;-84
2023/08/18 06:22:11;;;;;;;27.20;25.27;;;;;;;;;;5083750;28;20809;-86
2023/08/18 06:24:39;;;;;;;27.80;25.70;;;;;;;;;;5083675;28;20453;-86
2023/08/18 06:27:06;;;;;;;26.43;24.33;;;;;;;;;;5084441;28;20481;-86
2023/08/18 06:29:34;;;;;;;27.33;25.33;;;;;;;;;;5086867;28;20657;-86
2023/08/18 06:32:01;;;;;;;25.90;23.90;;;;;;;;;;5096972;28;20465;-85
2023/08/18 06:34:29;;;;;;;29.10;26.77;;;;;;;;;;5091696;28;20450;-87
2023/08/18 06:36:57;;;;;;;26.00;24.20;;;;;;;;;;5080794;28;20460;-86
2023/08/18 06:39:24;;;;;;;29.00;26.30;;;;;;;;;;5091821;28;20540;-85
2023/08/18 06:41:51;;;;;;;29.10;26.50;;;;;;;;;;5078988;28;20450;-87
2023/08/18 06:44:18;;;;;;;27.80;25.70;;;;;;;;;;5078850;28;20793;-87
2023/08/18 06:46:45;;;;;;;27.33;25.27;;;;;;;;;;5078809;28;20473;-86
2023/08/18 06:49:12;;;;;;;29.23;26.73;;;;;;;;;;5078794;28;20425;-87
2023/08/18 06:51:40;;;;;;;28.33;26.10;;;;;;;;;;5078913;28;20449;-86
2023/08/18 06:54:08;;;;;;;28.83;26.60;;;;;;;;;;5079977;28;20434;-86
2023/08/18 06:56:35;;;;;;;27.43;25.50;;;;;;;;;;5080151;28;20436;-87
2023/08/18 06:59:02;;;;;;;28.07;25.77;;;;;;;;;;5080706;28;20447;-86
2023/08/18 07:01:30;;;;;;;30.20;27.43;;;;;;;;;;5079403;28;20469;-87
2023/08/18 07:03:57;;;;;;;28.40;26.00;;;;;;;;;;5080201;28;20472;-85
2023/08/18 07:06:24;;;;;;;28.10;26.10;;;;;;;;;;5083166;28;20458;-86
2023/08/18 07:08:52;;;;;;;30.60;28.13;;;;;;;;;;5091629;28;20473;-88
2023/08/18 07:11:19;;;;;;;28.63;26.33;;;;;;;;;;5081516;28;20937;-86
2023/08/18 07:13:46;;;;;;;31.67;29.10;;;;;;;;;;5079961;28;20826;-86
2023/08/18 07:16:14;;;;;;;28.20;25.80;;;;;;;;;;5097472;28;20438;-87
2023/08/18 07:18:41;;;;;;;30.20;27.77;;;;;;;;;;5100386;28;20456;-86
2023/08/18 07:21:08;;;;;;;30.70;28.00;;;;;;;;;;5098684;28;20804;-87
2023/08/18 07:23:35;;;;;;;28.80;26.70;;;;;;;;;;5098432;28;20457;-86
2023/08/18 07:26:03;;;;;;;30.83;28.40;;;;;;;;;;5097657;28;20445;-86
2023/08/18 07:28:31;;;;;;;29.47;27.07;;;;;;;;;;5097398;28;20480;-87
2023/08/18 07:31:03;;;;;;;29.70;27.30;;;;;;;;;;5096616;28;20453;-88
2023/08/18 07:33:33;;;;;;;27.73;25.63;;;;;;;;;;5097220;28;20471;-87
2023/08/18 07:36:00;;;;;;;28.47;26.33;;;;;;;;;;5097195;28;20757;-87
2023/08/18 07:38:27;;;;;;;28.37;26.03;;;;;;;;;;5096739;28;20452;-87
2023/08/18 07:40:54;;;;;;;26.77;24.70;;;;;;;;;;5095716;28;20468;-87
2023/08/18 07:43:23;;;;;;;27.00;25.17;;;;;;;;;;5096353;28;20465;-87
2023/08/18 07:45:50;;;;;;;25.70;23.90;;;;;;;;;;5097009;28;20515;-87
2023/08/18 07:48:17;;;;;;;26.83;25.03;;;;;;;;;;5096604;28;20492;-87
2023/08/18 07:50:45;;;;;;;26.23;24.23;;;;;;;;;;5096903;28;20944;-87
2023/08/18 07:53:12;;;;;;;25.30;23.50;;;;;;;;;;5099134;28;21358;-85
2023/08/18 07:55:39;;;;;;;24.57;23.07;;;;;;;;;;5095558;28;20854;-81
2023/08/18 07:58:06;;;;;;;24.83;23.40;;;;;;;;;;5097534;28;20441;-82
2023/08/18 08:00:34;;;;;;;24.77;23.27;;;;;;;;;;5096236;28;20460;-80
2023/08/18 08:03:03;;;;;;;23.50;22.13;;;;;;;;;;5096218;28;20483;-81
2023/08/18 08:05:32;;;;;;;23.47;22.17;;;;;;;;;;5078844;28;20457;-82
2023/08/18 08:07:59;;;;;;;24.63;23.23;;;;;;;;;;5077394;28;20478;-81
2023/08/18 08:10:26;;;;;;;24.50;23.10;;;;;;;;;;5077126;28;20450;-80
2023/08/18 08:12:53;;;;;;;23.90;22.30;;;;;;;;;;5078930;28;20881;-82
2023/08/18 08:15:21;;;;;;;24.47;23.00;;;;;;;;;;5097927;28;20452;-82
2023/08/18 08:17:49;;;;;;;25.00;23.60;;;;;;;;;;5099149;28;20494;-85
2023/08/18 08:20:18;;;;;;;24.23;22.83;;;;;;;;;;5091392;27;20996;-86
2023/08/18 08:22:46;;;;;;;24.77;23.27;;;;;;;;;;5084681;28;20468;-86
2023/08/18 08:25:13;;;;;;;24.63;23.20;;;;;;;;;;5097224;28;20441;-82
2023/08/18 08:27:40;;;;;;;23.73;22.43;;;;;;;;;;5096509;28;20495;-80
2023/08/18 08:30:08;;;;;;;24.83;23.03;;;;;;;;;;5096471;28;20441;-87
2023/08/18 08:32:36;;;;;;;24.27;22.77;;;;;;;;;;5095368;28;20476;-87
2023/08/18 08:35:04;;;;;;;24.17;22.83;;;;;;;;;;5095302;28;20463;-88
2023/08/18 08:37:31;;;;;;;24.80;23.40;;;;;;;;;;5098058;28;20980;-84
2023/08/18 08:39:58;;;;;;;24.00;22.67;;;;;;;;;;5098401;28;20451;-82
2023/08/18 08:42:26;;;;;;;24.10;22.70;;;;;;;;;;5085987;28;20524;-83
2023/08/18 08:44:53;;;;;;;24.70;23.10;;;;;;;;;;5090700;28;20543;-82
2023/08/18 08:47:20;;;;;;;23.73;22.43;;;;;;;;;;5097701;28;20435;-84
2023/08/18 08:49:47;;;;;;;24.53;23.03;;;;;;;;;;5096485;28;20453;-89
2023/08/18 08:52:16;;;;;;;25.20;23.50;;;;;;;;;;5095967;28;20472;-89
2023/08/18 08:54:45;;;;;;;25.53;24.03;;;;;;;;;;5093836;28;20459;-90
2023/08/18 08:57:13;;;;;;;24.87;23.37;;;;;;;;;;5095649;28;20441;-82
2023/08/18 08:59:41;;;;;;;27.07;25.37;;;;;;;;;;5095712;28;20452;-82
2023/08/18 09:02:09;;;;;;;27.77;26.00;;;;;;;;;;5098296;28;20492;-82
2023/08/18 09:04:36;;;;;;;27.03;25.40;;;;;;;;;;5093187;28;20482;-87
2023/08/18 09:07:03;;;;;;;27.23;25.57;;;;;;;;;;5100041;28;20448;-86
2023/08/18 09:09:34;;;;;;;27.77;25.93;;;;;;;;;;5098732;28;20501;-85
2023/08/18 09:12:05;;;;;;;25.23;23.70;;;;;;;;;;5100077;28;20979;-86
2023/08/18 09:14:34;;;;;;;26.00;24.40;;;;;;;;;;5100537;28;20440;-85
2023/08/18 09:17:01;;;;;;;28.70;26.90;;;;;;;;;;5100925;28;20403;-86
2023/08/18 09:19:28;;;;;;;25.73;24.13;;;;;;;;;;5099812;28;20452;-85
2023/08/18 09:21:57;;;;;;;27.67;25.80;;;;;;;;;;5099704;28;20468;-86
2023/08/18 09:24:25;;;;;;;27.67;25.80;;;;;;;;;;5100315;28;20478;-87
2023/08/18 09:26:53;;;;;;;26.20;24.63;;;;;;;;;;5100910;28;20524;-86
2023/08/18 09:29:20;;;;;;;26.20;24.57;;;;;;;;;;5099838;28;20480;-85
2023/08/18 09:31:47;;;;;;;27.07;25.40;;;;;;;;;;5099299;28;20416;-86
2023/08/18 09:34:20;;;;;;;26.70;24.80;;;;;;;;;;5100147;28;20454;-86
2023/08/18 09:36:52;;;;;;;25.87;24.37;;;;;;;;;;5103535;28;20438;-86
2023/08/18 09:39:19;;;;;;;27.00;25.30;;;;;;;;;;5103236;28;20436;-85
2023/08/18 09:41:47;;;;;;;26.37;24.63;;;;;;;;;;5102380;28;20474;-86
2023/08/18 09:44:16;;;;;;;27.33;25.63;;;;;;;;;;5103192;28;21288;-87
2023/08/18 09:46:44;;;;;;;27.17;24.97;;;;;;;;;;5103683;28;20444;-85
2023/08/18 09:49:12;;;;;;;27.03;25.33;;;;;;;;;;5103695;28;20477;-86
2023/08/18 09:51:40;;;;;;;27.00;25.37;;;;;;;;;;5103002;28;20457;-86
2023/08/18 09:54:08;;;;;;;26.60;24.83;;;;;;;;;;5102841;28;20460;-85
2023/08/18 09:56:37;;;;;;;26.97;25.27;;;;;;;;;;5103020;28;20437;-85
2023/08/18 09:59:09;;;;;;;26.30;24.60;;;;;;;;;;5103304;28;20445;-87
2023/08/18 10:01:38;;;;;;;28.30;26.50;;;;;;;;;;5101350;28;20460;-85
2023/08/18 10:04:05;;;;;;;26.30;24.60;;;;;;;;;;5102103;28;20472;-85
2023/08/18 10:06:36;;;;;;;26.80;25.10;;;;;;;;;;5102307;28;20441;-87
2023/08/18 10:09:04;;;;;;;27.40;25.40;;;;;;;;;;5094263;28;20515;-86
2023/08/18 10:11:31;;;;;;;28.93;26.93;;;;;;;;;;5082317;28;20450;-86
2023/08/18 10:13:59;;;;;;;27.53;25.53;;;;;;;;;;5086053;27;20472;-85
2023/08/18 10:16:26;;;;;;;27.03;25.33;;;;;;;;;;5102858;28;20449;-86
2023/08/18 10:18:58;;;;;;;27.63;25.53;;;;;;;;;;5102439;28;20453;-87
2023/08/18 10:21:25;;;;;;;28.20;26.30;;;;;;;;;;5099594;28;20437;-87
2023/08/18 10:23:53;;;;;;;26.90;25.20;;;;;;;;;;5097028;28;20461;-87
2023/08/18 10:26:20;;;;;;;26.50;24.90;;;;;;;;;;5099981;28;20456;-86
2023/08/18 10:28:47;;;;;;;26.87;25.20;;;;;;;;;;5099577;28;20480;-85
2023/08/18 10:31:16;;;;;;;27.93;26.10;;;;;;;;;;5099412;28;20448;-84
2023/08/18 10:33:44;;;;;;;27.53;25.90;;;;;;;;;;5099482;28;20590;-86
2023/08/18 10:36:15;;;;;;;27.53;25.77;;;;;;;;;;5099933;28;21001;-86
2023/08/18 10:38:42;;;;;;;27.23;25.33;;;;;;;;;;5100245;28;20448;-86
2023/08/18 10:41:09;;;;;;;28.43;26.70;;;;;;;;;;5099617;28;20484;-85
2023/08/18 10:43:45;;;;;;;27.27;25.50;;;;;;;;;;5098971;28;21126;-86
2023/08/18 10:46:13;;;;;;;26.07;24.37;;;;;;;;;;5098717;28;20449;-85
2023/08/18 10:48:40;;;;;;;25.93;24.33;;;;;;;;;;5097875;28;20614;-86
2023/08/18 10:51:07;;;;;;;25.50;23.90;;;;;;;;;;5087376;28;20448;-87
2023/08/18 10:53:40;;;;;;;26.30;24.70;;;;;;;;;;5082211;28;20491;-86
2023/08/18 10:56:07;;;;;;;26.20;24.70;;;;;;;;;;5077926;28;20422;-85
2023/08/18 10:58:35;;;;;;;25.73;24.20;;;;;;;;;;5077959;28;20475;-85
2023/08/18 11:01:03;;;;;;;26.10;24.60;;;;;;;;;;5076121;28;20552;-86
2023/08/18 11:03:31;;;;;;;26.87;25.27;;;;;;;;;;5076313;28;21083;-86
2023/08/18 11:05:58;;;;;;;26.00;24.40;;;;;;;;;;5077198;28;20541;-85
2023/08/18 11:08:26;;;;;;;26.13;24.53;;;;;;;;;;5076257;28;20490;-86
2023/08/18 11:10:55;;;;;;;26.93;25.23;;;;;;;;;;5096239;28;20479;-86
2023/08/18 11:13:23;;;;;;;26.50;25.00;;;;;;;;;;5095812;28;20543;-87
2023/08/18 11:15:51;;;;;;;24.83;23.43;;;;;;;;;;5092673;28;20950;-87
2023/08/18 11:18:18;;;;;;;25.80;24.20;;;;;;;;;;5090812;28;20480;-86
2023/08/18 11:20:45;;;;;;;25.80;24.30;;;;;;;;;;5084688;28;20473;-85
2023/08/18 11:23:12;;;;;;;27.13;25.23;;;;;;;;;;5089546;28;20472;-87
2023/08/18 11:25:40;;;;;;;25.10;23.50;;;;;;;;;;5092383;28;20453;-87
2023/08/18 11:28:09;;;;;;;24.80;23.40;;;;;;;;;;5077857;28;20440;-86
2023/08/18 11:30:39;;;;;;;25.33;23.83;;;;;;;;;;5081590;28;20544;-86
2023/08/18 11:33:06;;;;;;;25.13;23.63;;;;;;;;;;5083443;28;21024;-87
2023/08/18 11:35:33;;;;;;;25.60;24.00;;;;;;;;;;5079539;28;20477;-83
2023/08/18 11:38:01;;;;;;;26.13;24.43;;;;;;;;;;5103237;28;20468;-80
2023/08/18 11:40:28;;;;;;;26.30;24.50;;;;;;;;;;5095981;28;20448;-81
2023/08/18 11:42:57;;;;;;;26.13;24.57;;;;;;;;;;5093507;28;20473;-82
2023/08/18 11:45:26;;;;;;;24.17;22.67;;;;;;;;;;5088961;28;20456;-80
2023/08/18 11:48:00;;;;;;;24.40;22.90;;;;;;;;;;5117324;28;20543;-85
2023/08/18 11:50:31;;;;;;;24.57;23.07;;;;;;;;;;5082356;28;20497;-85
2023/08/18 11:52:58;;;;;;;26.17;24.67;;;;;;;;;;5081766;28;20458;-84
2023/08/18 11:55:32;;;;;;;26.50;24.73;;;;;;;;;;5095806;28;20445;-86
2023/08/18 11:58:00;;;;;;;25.53;24.03;;;;;;;;;;5100877;28;20444;-85
2023/08/18 12:00:35;;;;;;;25.10;23.50;;;;;;;;;;5080043;28;20513;-84
2023/08/18 12:03:03;;;;;;;23.77;22.47;;;;;;;;;;5081804;28;20470;-84
2023/08/18 12:05:30;;;;;;;24.67;23.07;;;;;;;;;;5080184;28;20438;-85
2023/08/18 12:07:59;;;;;;;26.17;24.50;;;;;;;;;;5079785;28;20458;-83
2023/08/18 12:10:26;;;;;;;25.10;23.40;;;;;;;;;;5077382;28;21059;-84
2023/08/18 12:12:53;;;;;;;25.17;23.77;;;;;;;;;;5081829;28;20477;-84
2023/08/18 12:15:21;;;;;;;25.73;24.23;;;;;;;;;;5080114;28;20453;-84
2023/08/18 12:17:50;;;;;;;26.30;24.80;;;;;;;;;;5078528;28;20481;-87
2023/08/18 12:20:19;;;;;;;26.03;24.40;;;;;;;;;;5089289;28;20444;-87
2023/08/18 12:22:47;;;;;;;25.60;24.10;;;;;;;;;;5097338;28;20457;-86
2023/08/18 12:25:14;;;;;;;25.70;24.20;;;;;;;;;;5099746;28;20479;-87
2023/08/18 12:27:41;;;;;;;26.23;24.43;;;;;;;;;;5097004;28;20441;-86
2023/08/18 12:30:09;;;;;;;25.37;23.87;;;;;;;;;;5100742;28;20468;-85
2023/08/18 12:32:36;;;;;;;25.00;23.60;;;;;;;;;;5101244;28;20472;-85
2023/08/18 12:35:05;;;;;;;26.10;24.40;;;;;;;;;;5101766;28;20455;-84
2023/08/18 12:37:32;;;;;;;24.10;22.80;;;;;;;;;;5101884;28;20473;-85
2023/08/18 12:39:59;;;;;;;24.67;23.27;;;;;;;;;;5105103;28;21030;-86
2023/08/18 12:42:26;;;;;;;24.53;23.13;;;;;;;;;;5105508;28;20476;-84
2023/08/18 12:44:53;;;;;;;23.40;22.10;;;;;;;;;;5105685;28;20433;-84
2023/08/18 12:47:20;;;;;;;22.40;21.20;;;;;;;;;;5106010;28;20433;-85
2023/08/18 12:49:47;;;;;;;22.77;21.43;;;;;;;;;;5104838;28;20484;-84
2023/08/18 12:52:16;;;;;;;22.27;20.97;;;;;;;;;;5104989;28;20465;-85
2023/08/18 12:54:43;;;;;;;23.97;22.57;;;;;;;;;;5092179;28;20480;-84
2023/08/18 12:57:10;;;;;;;23.70;22.37;;;;;;;;;;5105191;28;20475;-84
2023/08/18 12:59:37;;;;;;;24.57;23.07;;;;;;;;;;5105329;28;20460;-82
2023/08/18 13:02:05;;;;;;;23.80;22.40;;;;;;;;;;5102690;28;20484;-84
2023/08/18 13:04:32;;;;;;;24.47;22.97;;;;;;;;;;5105267;28;20456;-86
2023/08/18 13:06:59;;;;;;;24.90;23.40;;;;;;;;;;5105844;28;20824;-84
2023/08/18 13:09:28;;;;;;;23.87;22.37;;;;;;;;;;5105435;28;20477;-86
2023/08/18 13:11:55;;;;;;;24.20;22.80;;;;;;;;;;5104828;28;20461;-86
2023/08/18 13:14:22;;;;;;;24.17;22.67;;;;;;;;;;5105073;28;20441;-85
2023/08/18 13:16:50;;;;;;;24.50;23.00;;;;;;;;;;5104365;28;20480;-85
2023/08/18 13:19:17;;;;;;;24.17;22.77;;;;;;;;;;5104067;28;20444;-85
2023/08/18 13:21:44;;;;;;;24.60;23.10;;;;;;;;;;5103252;28;20449;-86
2023/08/18 13:24:11;;;;;;;23.83;22.33;;;;;;;;;;5099940;28;20521;-84
2023/08/18 13:26:39;;;;;;;23.60;22.10;;;;;;;;;;5100211;28;20488;-80
2023/08/18 13:29:08;;;;;;;24.37;22.87;;;;;;;;;;5100419;28;20482;-80
2023/08/18 13:31:35;;;;;;;24.27;22.67;;;;;;;;;;5100174;28;20456;-81
2023/08/18 13:34:02;;;;;;;25.20;23.70;;;;;;;;;;5102254;28;20433;-87
2023/08/18 13:36:29;;;;;;;24.90;23.40;;;;;;;;;;5100886;28;20453;-83
2023/08/18 13:38:56;;;;;;;23.93;22.53;;;;;;;;;;5101670;28;20441;-85
2023/08/18 13:41:23;;;;;;;24.57;23.17;;;;;;;;;;5100734;28;20460;-86
2023/08/18 13:43:53;;;;;;;24.30;22.70;;;;;;;;;;5100773;28;20503;-86
2023/08/18 13:46:20;;;;;;;24.87;23.40;;;;;;;;;;5102195;28;20441;-85
2023/08/18 13:48:47;;;;;;;25.10;23.50;;;;;;;;;;5102196;28;20440;-86
2023/08/18 13:51:14;;;;;;;25.53;23.93;;;;;;;;;;5101015;28;20487;-86
2023/08/18 13:53:41;;;;;;;23.73;22.33;;;;;;;;;;5101304;28;20464;-85
2023/08/18 13:56:08;;;;;;;25.53;23.90;;;;;;;;;;5101367;28;20445;-86
2023/08/18 13:58:35;;;;;;;25.03;23.43;;;;;;;;;;5102369;28;20816;-85
2023/08/18 14:01:04;;;;;;;25.37;23.87;;;;;;;;;;5101677;28;21011;-85
2023/08/18 14:03:32;;;;;;;25.53;23.93;;;;;;;;;;5100870;28;20496;-86
2023/08/18 14:05:59;;;;;;;25.67;24.17;;;;;;;;;;5101320;28;20455;-84
2023/08/18 14:08:26;;;;;;;26.43;24.73;;;;;;;;;;5101173;28;20452;-86
2023/08/18 14:10:53;;;;;;;26.60;25.00;;;;;;;;;;5100865;28;20481;-85
2023/08/18 14:13:20;;;;;;;26.37;24.77;;;;;;;;;;5103732;28;20468;-86
2023/08/18 14:15:47;;;;;;;27.10;25.33;;;;;;;;;;5102315;28;20463;-86
2023/08/18 14:18:16;;;;;;;25.00;23.50;;;;;;;;;;5102457;28;20449;-85